Portada
METAR-TAF:

METAR-TAF

Aeropuertos :

Buochs, Suiza

latitud: 46-58-28N, longitud: 8-23-49E, altitud: 449 m

Observación

El informe se hizo hace 21 minutos, a las 11:50 UTC
Viento 4 kt del este-sureste, variando entre noreste y sur-sureste
Temperatura 13°C
Humedad 51%
Presión 1021 hPa
Visibilidad 10 km o más
sin nubes por debajo de 1500 m y sin presencia de cumulonimbus.

METAR: LSZC 041150Z AUTO 11004KT 040V160 CAVOK 13/03 Q1021

Hora: 14:11 (12:11 UTC)

Pronóstico

El informe se hizo hace 21 horas y 46 minutos, a las 14:25 UTC
Pronóstico válido del 03 a las 15 UTC al 03 a las 24 UTC
Viento 3 kt con dirección variable
Visibilidad 10 km o más
sin nubes por debajo de 1500 m y sin presencia de cumulonimbus.
Temporalmente
del 03 a las 15 UTC al 03 a las 21 UTC
Visibilidad 10 km o más
Escasas nubes a una altura de 7000 ft

TAF: LSZC 031425Z 0315/0324 VRB03KT CAVOK TEMPO 0315/0321 9999 FEW070

Observaciones y pronósticos meteorológicos de más de 4000 aeropuertos (mensajes METAR y TAF).

Los puntos amarillos y rojos representan las estaciones disponibles.

Ponga el ratón en el punto deseado para ver el nombre de la estación.

Haga clic para ver las observaciones y los pronósticos meteorológicos.

Para cambiar el mapa : haga clic en los botones verdes con una cruz de color negro para hacer un zoom, en el botón verde con un guión para alejar o en las flechas verdes para mapas adyacentes.


METAR-TAF: